sensor_id;sensor_type;location;lat;lon;timestamp;P1;durP1;ratioP1;P2;durP2;ratioP2
16391;SDS011;8305;-33.882;151.134;2023-02-28T00:01:34;3.60;;;1.10;;
16391;SDS011;8305;-33.882;151.134;2023-02-28T00:04:05;3.70;;;1.00;;
16391;SDS011;8305;-33.882;151.134;2023-02-28T00:06:39;3.90;;;1.05;;
16391;SDS011;8305;-33.882;151.134;2023-02-28T00:09:10;4.88;;;1.23;;
16391;SDS011;8305;-33.882;151.134;2023-02-28T00:11:41;3.38;;;1.00;;
16391;SDS011;8305;-33.882;151.134;2023-02-28T00:14:12;5.30;;;1.00;;
16391;SDS011;8305;-33.882;151.134;2023-02-28T00:16:43;4.50;;;0.95;;
16391;SDS011;8305;-33.882;151.134;2023-02-28T00:19:14;5.60;;;1.33;;
16391;SDS011;8305;-33.882;151.134;2023-02-28T00:21:47;2.88;;;1.05;;
16391;SDS011;8305;-33.882;151.134;2023-02-28T00:24:18;4.07;;;0.98;;
16391;SDS011;8305;-33.882;151.134;2023-02-28T00:26:49;4.15;;;1.13;;
16391;SDS011;8305;-33.882;151.134;2023-02-28T00:29:20;9.65;;;1.15;;
16391;SDS011;8305;-33.882;151.134;2023-02-28T00:31:51;3.85;;;0.90;;
16391;SDS011;8305;-33.882;151.134;2023-02-28T00:34:24;5.10;;;1.20;;
16391;SDS011;8305;-33.882;151.134;2023-02-28T00:36:58;5.00;;;1.00;;
16391;SDS011;8305;-33.882;151.134;2023-02-28T00:39:29;4.03;;;1.00;;
16391;SDS011;8305;-33.882;151.134;2023-02-28T00:42:02;4.85;;;1.00;;
16391;SDS011;8305;-33.882;151.134;2023-02-28T00:44:35;4.20;;;1.00;;
16391;SDS011;8305;-33.882;151.134;2023-02-28T00:47:06;3.63;;;1.02;;
16391;SDS011;8305;-33.882;151.134;2023-02-28T00:49:37;3.58;;;1.05;;
16391;SDS011;8305;-33.882;151.134;2023-02-28T00:52:10;2.30;;;1.08;;
16391;SDS011;8305;-33.882;151.134;2023-02-28T00:54:41;3.75;;;1.10;;
16391;SDS011;8305;-33.882;151.134;2023-02-28T00:57:12;3.90;;;0.90;;
16391;SDS011;8305;-33.882;151.134;2023-02-28T00:59:43;3.63;;;1.10;;
16391;SDS011;8305;-33.882;151.134;2023-02-28T01:02:14;4.57;;;1.20;;
16391;SDS011;8305;-33.882;151.134;2023-02-28T01:04:46;2.40;;;0.98;;
16391;SDS011;8305;-33.882;151.134;2023-02-28T01:07:19;4.38;;;1.13;;
16391;SDS011;8305;-33.882;151.134;2023-02-28T01:09:50;4.50;;;1.20;;
16391;SDS011;8305;-33.882;151.134;2023-02-28T01:12:21;3.50;;;1.35;;
16391;SDS011;8305;-33.882;151.134;2023-02-28T01:14:52;6.57;;;1.00;;
16391;SDS011;8305;-33.882;151.134;2023-02-28T01:17:23;5.40;;;1.10;;
16391;SDS011;8305;-33.882;151.134;2023-02-28T01:19:54;4.90;;;1.05;;
16391;SDS011;8305;-33.882;151.134;2023-02-28T01:22:27;4.63;;;1.30;;
16391;SDS011;8305;-33.882;151.134;2023-02-28T01:24:59;3.90;;;1.25;;
16391;SDS011;8305;-33.882;151.134;2023-02-28T01:27:30;3.90;;;1.38;;
16391;SDS011;8305;-33.882;151.134;2023-02-28T01:30:05;5.30;;;1.00;;
16391;SDS011;8305;-33.882;151.134;2023-02-28T01:32:38;3.83;;;0.80;;
16391;SDS011;8305;-33.882;151.134;2023-02-28T01:35:09;3.95;;;1.00;;
16391;SDS011;8305;-33.882;151.134;2023-02-28T01:37:43;3.33;;;1.00;;
16391;SDS011;8305;-33.882;151.134;2023-02-28T01:40:16;5.45;;;1.02;;
16391;SDS011;8305;-33.882;151.134;2023-02-28T01:42:47;4.45;;;1.10;;
16391;SDS011;8305;-33.882;151.134;2023-02-28T01:45:21;6.38;;;1.17;;
16391;SDS011;8305;-33.882;151.134;2023-02-28T01:47:55;2.90;;;1.10;;
16391;SDS011;8305;-33.882;151.134;2023-02-28T01:50:33;6.88;;;2.55;;
16391;SDS011;8305;-33.882;151.134;2023-02-28T01:53:10;3.22;;;1.08;;
16391;SDS011;8305;-33.882;151.134;2023-02-28T01:55:46;3.92;;;1.45;;
16391;SDS011;8305;-33.882;151.134;2023-02-28T01:58:20;7.50;;;1.23;;
16391;SDS011;8305;-33.882;151.134;2023-02-28T02:00:51;4.40;;;1.30;;
16391;SDS011;8305;-33.882;151.134;2023-02-28T02:03:23;3.17;;;1.00;;
16391;SDS011;8305;-33.882;151.134;2023-02-28T02:05:54;2.53;;;0.90;;
16391;SDS011;8305;-33.882;151.134;2023-02-28T02:08:28;4.50;;;1.10;;
16391;SDS011;8305;-33.882;151.134;2023-02-28T02:11:00;3.88;;;1.02;;
16391;SDS011;8305;-33.882;151.134;2023-02-28T02:13:39;3.08;;;1.00;;
16391;SDS011;8305;-33.882;151.134;2023-02-28T02:16:22;5.00;;;1.05;;
16391;SDS011;8305;-33.882;151.134;2023-02-28T02:19:02;5.07;;;1.33;;
16391;SDS011;8305;-33.882;151.134;2023-02-28T02:22:05;6.35;;;1.10;;
16391;SDS011;8305;-33.882;151.134;2023-02-28T02:28:03;6.95;;;1.45;;
16391;SDS011;8305;-33.882;151.134;2023-02-28T02:31:04;3.03;;;1.10;;
16391;SDS011;8305;-33.882;151.134;2023-02-28T02:37:04;3.17;;;1.13;;
16391;SDS011;8305;-33.882;151.134;2023-02-28T02:39:48;5.18;;;1.17;;
16391;SDS011;8305;-33.882;151.134;2023-02-28T02:42:25;8.07;;;1.20;;
16391;SDS011;8305;-33.882;151.134;2023-02-28T02:45:01;3.85;;;1.30;;
16391;SDS011;8305;-33.882;151.134;2023-02-28T02:47:36;5.78;;;1.30;;
16391;SDS011;8305;-33.882;151.134;2023-02-28T02:50:11;3.45;;;1.20;;
16391;SDS011;8305;-33.882;151.134;2023-02-28T02:52:48;3.70;;;1.00;;
16391;SDS011;8305;-33.882;151.134;2023-02-28T02:55:23;5.25;;;1.10;;
16391;SDS011;8305;-33.882;151.134;2023-02-28T02:57:56;4.38;;;1.00;;
16391;SDS011;8305;-33.882;151.134;2023-02-28T03:00:32;4.47;;;1.20;;
16391;SDS011;8305;-33.882;151.134;2023-02-28T03:03:06;5.95;;;1.25;;
16391;SDS011;8305;-33.882;151.134;2023-02-28T03:05:41;5.13;;;1.17;;
16391;SDS011;8305;-33.882;151.134;2023-02-28T03:08:17;4.22;;;1.10;;
16391;SDS011;8305;-33.882;151.134;2023-02-28T03:10:48;4.53;;;1.20;;
16391;SDS011;8305;-33.882;151.134;2023-02-28T03:13:30;3.10;;;0.98;;
16391;SDS011;8305;-33.882;151.134;2023-02-28T03:22:11;4.88;;;1.13;;
16391;SDS011;8305;-33.882;151.134;2023-02-28T03:24:56;7.32;;;1.30;;
16391;SDS011;8305;-33.882;151.134;2023-02-28T03:27:33;3.20;;;1.20;;
16391;SDS011;8305;-33.882;151.134;2023-02-28T03:30:10;3.58;;;0.90;;
16391;SDS011;8305;-33.882;151.134;2023-02-28T03:32:48;3.67;;;0.90;;
16391;SDS011;8305;-33.882;151.134;2023-02-28T03:35:26;4.15;;;1.27;;
16391;SDS011;8305;-33.882;151.134;2023-02-28T03:38:03;10.10;;;1.10;;
16391;SDS011;8305;-33.882;151.134;2023-02-28T03:40:42;2.88;;;0.80;;
16391;SDS011;8305;-33.882;151.134;2023-02-28T03:43:18;3.88;;;0.90;;
16391;SDS011;8305;-33.882;151.134;2023-02-28T03:45:53;3.53;;;1.00;;
16391;SDS011;8305;-33.882;151.134;2023-02-28T03:48:25;5.22;;;0.95;;
16391;SDS011;8305;-33.882;151.134;2023-02-28T03:51:00;4.25;;;1.13;;
16391;SDS011;8305;-33.882;151.134;2023-02-28T03:53:36;3.03;;;0.88;;
16391;SDS011;8305;-33.882;151.134;2023-02-28T03:56:11;4.55;;;1.00;;
16391;SDS011;8305;-33.882;151.134;2023-02-28T03:58:47;3.30;;;0.80;;
16391;SDS011;8305;-33.882;151.134;2023-02-28T04:01:25;3.00;;;1.00;;
16391;SDS011;8305;-33.882;151.134;2023-02-28T04:04:01;3.78;;;0.88;;
16391;SDS011;8305;-33.882;151.134;2023-02-28T04:06:33;4.07;;;0.93;;
16391;SDS011;8305;-33.882;151.134;2023-02-28T04:09:05;4.53;;;0.90;;
16391;SDS011;8305;-33.882;151.134;2023-02-28T04:11:40;5.10;;;1.10;;
16391;SDS011;8305;-33.882;151.134;2023-02-28T04:14:12;3.92;;;1.00;;
16391;SDS011;8305;-33.882;151.134;2023-02-28T04:16:43;5.72;;;0.85;;
16391;SDS011;8305;-33.882;151.134;2023-02-28T04:19:14;4.13;;;0.70;;
16391;SDS011;8305;-33.882;151.134;2023-02-28T04:21:46;2.60;;;0.80;;
16391;SDS011;8305;-33.882;151.134;2023-02-28T04:24:18;2.25;;;0.73;;
16391;SDS011;8305;-33.882;151.134;2023-02-28T04:26:52;3.35;;;0.80;;
16391;SDS011;8305;-33.882;151.134;2023-02-28T04:29:26;3.60;;;0.52;;
16391;SDS011;8305;-33.882;151.134;2023-02-28T04:31:58;5.45;;;0.80;;
16391;SDS011;8305;-33.882;151.134;2023-02-28T04:34:30;2.60;;;0.60;;
16391;SDS011;8305;-33.882;151.134;2023-02-28T04:37:01;5.00;;;1.05;;
16391;SDS011;8305;-33.882;151.134;2023-02-28T04:39:35;3.30;;;0.70;;
16391;SDS011;8305;-33.882;151.134;2023-02-28T04:42:08;4.32;;;0.85;;
16391;SDS011;8305;-33.882;151.134;2023-02-28T04:44:40;4.60;;;0.80;;
16391;SDS011;8305;-33.882;151.134;2023-02-28T04:47:11;3.90;;;0.80;;
16391;SDS011;8305;-33.882;151.134;2023-02-28T04:49:42;3.47;;;0.82;;
16391;SDS011;8305;-33.882;151.134;2023-02-28T04:52:13;3.30;;;0.80;;
16391;SDS011;8305;-33.882;151.134;2023-02-28T04:54:44;3.33;;;0.70;;
16391;SDS011;8305;-33.882;151.134;2023-02-28T04:57:17;3.28;;;0.70;;
16391;SDS011;8305;-33.882;151.134;2023-02-28T04:59:48;5.22;;;0.70;;
16391;SDS011;8305;-33.882;151.134;2023-02-28T05:02:19;2.92;;;0.68;;
16391;SDS011;8305;-33.882;151.134;2023-02-28T05:04:50;4.18;;;0.90;;
16391;SDS011;8305;-33.882;151.134;2023-02-28T05:07:21;3.58;;;1.00;;
16391;SDS011;8305;-33.882;151.134;2023-02-28T05:09:52;1.92;;;0.70;;
16391;SDS011;8305;-33.882;151.134;2023-02-28T05:12:25;2.63;;;0.85;;
16391;SDS011;8305;-33.882;151.134;2023-02-28T05:14:56;2.08;;;0.90;;
16391;SDS011;8305;-33.882;151.134;2023-02-28T05:17:28;2.45;;;0.90;;
16391;SDS011;8305;-33.882;151.134;2023-02-28T05:19:59;8.05;;;1.10;;
16391;SDS011;8305;-33.882;151.134;2023-02-28T05:22:32;3.67;;;0.70;;
16391;SDS011;8305;-33.882;151.134;2023-02-28T05:25:03;3.15;;;1.08;;
16391;SDS011;8305;-33.882;151.134;2023-02-28T05:27:36;2.55;;;0.73;;
16391;SDS011;8305;-33.882;151.134;2023-02-28T05:30:07;3.63;;;0.90;;
16391;SDS011;8305;-33.882;151.134;2023-02-28T05:32:39;3.83;;;0.80;;
16391;SDS011;8305;-33.882;151.134;2023-02-28T05:35:11;3.47;;;0.95;;
16391;SDS011;8305;-33.882;151.134;2023-02-28T05:37:42;2.95;;;1.20;;
16391;SDS011;8305;-33.882;151.134;2023-02-28T05:40:13;5.50;;;1.00;;
16391;SDS011;8305;-33.882;151.134;2023-02-28T05:42:48;2.38;;;0.82;;
16391;SDS011;8305;-33.882;151.134;2023-02-28T05:45:20;3.22;;;0.80;;
16391;SDS011;8305;-33.882;151.134;2023-02-28T05:47:53;4.25;;;0.90;;
16391;SDS011;8305;-33.882;151.134;2023-02-28T05:50:24;3.97;;;1.02;;
16391;SDS011;8305;-33.882;151.134;2023-02-28T05:52:55;4.45;;;1.20;;
16391;SDS011;8305;-33.882;151.134;2023-02-28T05:55:27;4.93;;;1.10;;
16391;SDS011;8305;-33.882;151.134;2023-02-28T05:58:01;3.45;;;0.90;;
16391;SDS011;8305;-33.882;151.134;2023-02-28T06:00:32;4.22;;;1.10;;
16391;SDS011;8305;-33.882;151.134;2023-02-28T06:03:03;3.25;;;1.10;;
16391;SDS011;8305;-33.882;151.134;2023-02-28T06:05:34;4.85;;;1.17;;
16391;SDS011;8305;-33.882;151.134;2023-02-28T06:08:05;3.83;;;1.30;;
16391;SDS011;8305;-33.882;151.134;2023-02-28T06:10:36;1.98;;;1.10;;
16391;SDS011;8305;-33.882;151.134;2023-02-28T06:13:09;3.80;;;1.52;;
16391;SDS011;8305;-33.882;151.134;2023-02-28T06:15:41;3.97;;;1.58;;
16391;SDS011;8305;-33.882;151.134;2023-02-28T06:18:12;3.70;;;1.33;;
16391;SDS011;8305;-33.882;151.134;2023-02-28T06:20:43;5.03;;;1.30;;
16391;SDS011;8305;-33.882;151.134;2023-02-28T06:23:21;5.18;;;1.77;;
16391;SDS011;8305;-33.882;151.134;2023-02-28T06:25:52;7.68;;;1.70;;
16391;SDS011;8305;-33.882;151.134;2023-02-28T06:28:26;5.68;;;1.48;;
16391;SDS011;8305;-33.882;151.134;2023-02-28T06:30:57;4.05;;;1.10;;
16391;SDS011;8305;-33.882;151.134;2023-02-28T06:33:28;5.40;;;1.23;;
16391;SDS011;8305;-33.882;151.134;2023-02-28T06:35:59;5.75;;;1.15;;
16391;SDS011;8305;-33.882;151.134;2023-02-28T06:38:31;3.35;;;1.10;;
16391;SDS011;8305;-33.882;151.134;2023-02-28T06:41:02;6.35;;;1.55;;
16391;SDS011;8305;-33.882;151.134;2023-02-28T06:43:36;8.07;;;1.40;;
16391;SDS011;8305;-33.882;151.134;2023-02-28T06:46:11;4.18;;;1.40;;
16391;SDS011;8305;-33.882;151.134;2023-02-28T06:48:43;4.35;;;1.10;;
16391;SDS011;8305;-33.882;151.134;2023-02-28T06:51:15;4.75;;;1.20;;
16391;SDS011;8305;-33.882;151.134;2023-02-28T06:53:48;4.18;;;1.15;;
16391;SDS011;8305;-33.882;151.134;2023-02-28T06:56:19;5.80;;;1.20;;
16391;SDS011;8305;-33.882;151.134;2023-02-28T06:58:52;5.32;;;1.20;;
16391;SDS011;8305;-33.882;151.134;2023-02-28T07:01:23;4.80;;;1.20;;
16391;SDS011;8305;-33.882;151.134;2023-02-28T07:03:55;5.90;;;1.13;;
16391;SDS011;8305;-33.882;151.134;2023-02-28T07:06:26;5.85;;;1.02;;
16391;SDS011;8305;-33.882;151.134;2023-02-28T07:08:57;3.55;;;1.10;;
16391;SDS011;8305;-33.882;151.134;2023-02-28T07:11:30;4.38;;;1.10;;
16391;SDS011;8305;-33.882;151.134;2023-02-28T07:14:03;4.43;;;1.40;;
16391;SDS011;8305;-33.882;151.134;2023-02-28T07:16:34;6.38;;;1.45;;
16391;SDS011;8305;-33.882;151.134;2023-02-28T07:19:06;6.55;;;1.30;;
16391;SDS011;8305;-33.882;151.134;2023-02-28T07:21:37;6.05;;;1.55;;
16391;SDS011;8305;-33.882;151.134;2023-02-28T07:24:08;6.40;;;1.27;;
16391;SDS011;8305;-33.882;151.134;2023-02-28T07:26:41;4.20;;;1.20;;
16391;SDS011;8305;-33.882;151.134;2023-02-28T07:29:14;5.40;;;1.27;;
16391;SDS011;8305;-33.882;151.134;2023-02-28T07:31:45;7.07;;;1.40;;
16391;SDS011;8305;-33.882;151.134;2023-02-28T07:34:19;4.00;;;1.23;;
16391;SDS011;8305;-33.882;151.134;2023-02-28T07:36:53;4.43;;;1.27;;
16391;SDS011;8305;-33.882;151.134;2023-02-28T07:39:24;5.28;;;1.20;;
16391;SDS011;8305;-33.882;151.134;2023-02-28T07:41:55;5.13;;;1.30;;
16391;SDS011;8305;-33.882;151.134;2023-02-28T07:44:28;2.85;;;1.33;;
16391;SDS011;8305;-33.882;151.134;2023-02-28T07:46:59;5.45;;;1.30;;
16391;SDS011;8305;-33.882;151.134;2023-02-28T07:49:30;7.13;;;1.30;;
16391;SDS011;8305;-33.882;151.134;2023-02-28T07:52:01;4.32;;;1.35;;
16391;SDS011;8305;-33.882;151.134;2023-02-28T07:54:32;6.07;;;1.52;;
16391;SDS011;8305;-33.882;151.134;2023-02-28T07:57:03;5.55;;;1.20;;
16391;SDS011;8305;-33.882;151.134;2023-02-28T07:59:36;3.97;;;1.70;;
16391;SDS011;8305;-33.882;151.134;2023-02-28T08:02:09;5.57;;;1.50;;
16391;SDS011;8305;-33.882;151.134;2023-02-28T08:04:41;6.40;;;1.45;;
16391;SDS011;8305;-33.882;151.134;2023-02-28T08:07:14;4.75;;;1.38;;
16391;SDS011;8305;-33.882;151.134;2023-02-28T08:09:45;6.43;;;1.38;;
16391;SDS011;8305;-33.882;151.134;2023-02-28T08:12:16;5.30;;;1.30;;
16391;SDS011;8305;-33.882;151.134;2023-02-28T08:14:49;6.38;;;1.48;;
16391;SDS011;8305;-33.882;151.134;2023-02-28T08:17:20;2.92;;;1.38;;
16391;SDS011;8305;-33.882;151.134;2023-02-28T08:19:51;9.35;;;1.65;;
16391;SDS011;8305;-33.882;151.134;2023-02-28T08:22:22;4.50;;;1.40;;
16391;SDS011;8305;-33.882;151.134;2023-02-28T08:24:53;4.85;;;1.38;;
16391;SDS011;8305;-33.882;151.134;2023-02-28T08:27:24;3.38;;;1.20;;
16391;SDS011;8305;-33.882;151.134;2023-02-28T08:29:57;6.45;;;1.42;;
16391;SDS011;8305;-33.882;151.134;2023-02-28T08:32:29;6.25;;;1.90;;
16391;SDS011;8305;-33.882;151.134;2023-02-28T08:35:01;6.63;;;1.50;;
16391;SDS011;8305;-33.882;151.134;2023-02-28T08:37:32;4.05;;;1.50;;
16391;SDS011;8305;-33.882;151.134;2023-02-28T08:40:04;4.03;;;1.40;;
16391;SDS011;8305;-33.882;151.134;2023-02-28T08:42:36;6.15;;;1.40;;
16391;SDS011;8305;-33.882;151.134;2023-02-28T08:45:09;4.32;;;1.48;;
16391;SDS011;8305;-33.882;151.134;2023-02-28T08:47:41;8.13;;;1.63;;
16391;SDS011;8305;-33.882;151.134;2023-02-28T08:50:12;7.57;;;1.60;;
16391;SDS011;8305;-33.882;151.134;2023-02-28T08:52:43;4.40;;;1.95;;
16391;SDS011;8305;-33.882;151.134;2023-02-28T08:55:14;5.35;;;1.48;;
16391;SDS011;8305;-33.882;151.134;2023-02-28T08:57:45;5.03;;;1.50;;
16391;SDS011;8305;-33.882;151.134;2023-02-28T09:00:19;4.18;;;1.55;;
16391;SDS011;8305;-33.882;151.134;2023-02-28T09:02:51;7.50;;;1.60;;
16391;SDS011;8305;-33.882;151.134;2023-02-28T09:05:22;7.95;;;1.55;;
16391;SDS011;8305;-33.882;151.134;2023-02-28T09:07:55;8.68;;;1.83;;
16391;SDS011;8305;-33.882;151.134;2023-02-28T09:10:26;5.93;;;1.73;;
16391;SDS011;8305;-33.882;151.134;2023-02-28T09:12:57;3.00;;;1.42;;
16391;SDS011;8305;-33.882;151.134;2023-02-28T09:15:30;5.43;;;1.70;;
16391;SDS011;8305;-33.882;151.134;2023-02-28T09:18:01;5.60;;;1.70;;
16391;SDS011;8305;-33.882;151.134;2023-02-28T09:20:32;3.65;;;1.60;;
16391;SDS011;8305;-33.882;151.134;2023-02-28T09:23:06;5.20;;;1.63;;
16391;SDS011;8305;-33.882;151.134;2023-02-28T09:25:40;4.30;;;1.60;;
16391;SDS011;8305;-33.882;151.134;2023-02-28T09:28:17;5.57;;;2.08;;
16391;SDS011;8305;-33.882;151.134;2023-02-28T09:30:51;2.83;;;1.52;;
16391;SDS011;8305;-33.882;151.134;2023-02-28T09:33:23;6.47;;;1.67;;
16391;SDS011;8305;-33.882;151.134;2023-02-28T09:35:58;5.07;;;1.50;;
16391;SDS011;8305;-33.882;151.134;2023-02-28T09:38:29;9.75;;;2.28;;
16391;SDS011;8305;-33.882;151.134;2023-02-28T09:41:02;4.40;;;1.67;;
16391;SDS011;8305;-33.882;151.134;2023-02-28T09:43:40;5.07;;;1.83;;
16391;SDS011;8305;-33.882;151.134;2023-02-28T09:46:21;5.82;;;1.92;;
16391;SDS011;8305;-33.882;151.134;2023-02-28T09:49:04;7.60;;;1.70;;
16391;SDS011;8305;-33.882;151.134;2023-02-28T09:51:44;5.50;;;1.80;;
16391;SDS011;8305;-33.882;151.134;2023-02-28T09:54:19;5.03;;;1.60;;
16391;SDS011;8305;-33.882;151.134;2023-02-28T09:56:53;6.35;;;1.70;;
16391;SDS011;8305;-33.882;151.134;2023-02-28T10:02:45;4.22;;;1.70;;
16391;SDS011;8305;-33.882;151.134;2023-02-28T10:05:34;5.47;;;1.92;;
16391;SDS011;8305;-33.882;151.134;2023-02-28T10:08:11;5.30;;;1.85;;
16391;SDS011;8305;-33.882;151.134;2023-02-28T10:10:45;5.65;;;1.90;;
16391;SDS011;8305;-33.882;151.134;2023-02-28T10:13:21;7.10;;;1.85;;
16391;SDS011;8305;-33.882;151.134;2023-02-28T10:15:58;6.13;;;1.85;;
16391;SDS011;8305;-33.882;151.134;2023-02-28T10:18:39;6.05;;;2.03;;
16391;SDS011;8305;-33.882;151.134;2023-02-28T10:21:16;4.82;;;1.75;;
16391;SDS011;8305;-33.882;151.134;2023-02-28T10:23:59;8.25;;;1.85;;
16391;SDS011;8305;-33.882;151.134;2023-02-28T10:26:35;5.68;;;1.80;;
16391;SDS011;8305;-33.882;151.134;2023-02-28T10:29:08;3.80;;;1.65;;
16391;SDS011;8305;-33.882;151.134;2023-02-28T10:31:39;6.40;;;1.70;;
16391;SDS011;8305;-33.882;151.134;2023-02-28T10:34:13;5.75;;;2.10;;
16391;SDS011;8305;-33.882;151.134;2023-02-28T10:36:44;7.05;;;2.10;;
16391;SDS011;8305;-33.882;151.134;2023-02-28T10:47:51;5.32;;;1.90;;
16391;SDS011;8305;-33.882;151.134;2023-02-28T10:50:33;5.65;;;2.10;;
16391;SDS011;8305;-33.882;151.134;2023-02-28T10:53:25;4.95;;;2.22;;
16391;SDS011;8305;-33.882;151.134;2023-02-28T10:56:01;3.60;;;1.83;;
16391;SDS011;8305;-33.882;151.134;2023-02-28T10:58:42;5.70;;;2.00;;
16391;SDS011;8305;-33.882;151.134;2023-02-28T11:01:17;4.80;;;2.00;;
16391;SDS011;8305;-33.882;151.134;2023-02-28T11:03:50;5.03;;;1.80;;
16391;SDS011;8305;-33.882;151.134;2023-02-28T11:06:23;6.57;;;1.80;;
16391;SDS011;8305;-33.882;151.134;2023-02-28T11:08:59;5.50;;;2.10;;
16391;SDS011;8305;-33.882;151.134;2023-02-28T11:11:41;4.43;;;2.10;;
16391;SDS011;8305;-33.882;151.134;2023-02-28T11:14:17;10.45;;;2.90;;
16391;SDS011;8305;-33.882;151.134;2023-02-28T11:16:51;7.95;;;2.30;;
16391;SDS011;8305;-33.882;151.134;2023-02-28T11:19:23;4.65;;;2.03;;
16391;SDS011;8305;-33.882;151.134;2023-02-28T11:22:02;5.78;;;2.10;;
16391;SDS011;8305;-33.882;151.134;2023-02-28T11:24:35;4.90;;;1.90;;
16391;SDS011;8305;-33.882;151.134;2023-02-28T11:27:20;4.28;;;1.80;;
16391;SDS011;8305;-33.882;151.134;2023-02-28T11:30:23;4.63;;;2.17;;
16391;SDS011;8305;-33.882;151.134;2023-02-28T11:32:55;7.18;;;2.42;;
16391;SDS011;8305;-33.882;151.134;2023-02-28T11:35:27;6.65;;;2.08;;
16391;SDS011;8305;-33.882;151.134;2023-02-28T11:38:02;9.30;;;2.35;;
16391;SDS011;8305;-33.882;151.134;2023-02-28T11:40:36;5.80;;;2.25;;
16391;SDS011;8305;-33.882;151.134;2023-02-28T11:43:17;4.78;;;1.95;;
16391;SDS011;8305;-33.882;151.134;2023-02-28T11:46:02;7.85;;;2.20;;
16391;SDS011;8305;-33.882;151.134;2023-02-28T11:48:44;5.55;;;2.20;;
16391;SDS011;8305;-33.882;151.134;2023-02-28T11:51:22;4.75;;;2.00;;
16391;SDS011;8305;-33.882;151.134;2023-02-28T11:54:12;4.82;;;1.92;;
16391;SDS011;8305;-33.882;151.134;2023-02-28T11:56:58;6.22;;;2.05;;
16391;SDS011;8305;-33.882;151.134;2023-02-28T11:59:42;4.68;;;2.20;;
16391;SDS011;8305;-33.882;151.134;2023-02-28T12:02:23;5.90;;;2.10;;
16391;SDS011;8305;-33.882;151.134;2023-02-28T12:05:01;7.03;;;2.65;;
16391;SDS011;8305;-33.882;151.134;2023-02-28T12:07:46;6.43;;;2.03;;
16391;SDS011;8305;-33.882;151.134;2023-02-28T12:10:27;5.25;;;2.38;;
16391;SDS011;8305;-33.882;151.134;2023-02-28T12:13:10;4.25;;;2.10;;
16391;SDS011;8305;-33.882;151.134;2023-02-28T12:15:50;5.47;;;2.22;;
16391;SDS011;8305;-33.882;151.134;2023-02-28T12:18:42;5.07;;;2.40;;
16391;SDS011;8305;-33.882;151.134;2023-02-28T12:21:26;8.50;;;2.65;;
16391;SDS011;8305;-33.882;151.134;2023-02-28T12:24:12;5.85;;;2.30;;
16391;SDS011;8305;-33.882;151.134;2023-02-28T12:27:16;5.80;;;2.08;;
16391;SDS011;8305;-33.882;151.134;2023-02-28T12:29:51;5.45;;;2.13;;
16391;SDS011;8305;-33.882;151.134;2023-02-28T12:32:26;5.72;;;2.40;;
16391;SDS011;8305;-33.882;151.134;2023-02-28T12:35:02;7.45;;;2.28;;
16391;SDS011;8305;-33.882;151.134;2023-02-28T12:37:40;4.43;;;2.25;;
16391;SDS011;8305;-33.882;151.134;2023-02-28T12:40:18;6.45;;;2.30;;
16391;SDS011;8305;-33.882;151.134;2023-02-28T12:42:54;8.30;;;2.30;;
16391;SDS011;8305;-33.882;151.134;2023-02-28T12:45:27;6.28;;;1.98;;
16391;SDS011;8305;-33.882;151.134;2023-02-28T12:48:09;6.07;;;2.15;;
16391;SDS011;8305;-33.882;151.134;2023-02-28T12:50:45;4.57;;;2.20;;
16391;SDS011;8305;-33.882;151.134;2023-02-28T12:53:18;5.35;;;2.25;;
16391;SDS011;8305;-33.882;151.134;2023-02-28T12:55:57;4.65;;;2.10;;
16391;SDS011;8305;-33.882;151.134;2023-02-28T12:58:39;7.05;;;2.35;;
16391;SDS011;8305;-33.882;151.134;2023-02-28T13:01:24;6.28;;;2.47;;
16391;SDS011;8305;-33.882;151.134;2023-02-28T13:04:33;6.63;;;2.20;;
16391;SDS011;8305;-33.882;151.134;2023-02-28T13:07:33;5.65;;;2.05;;
16391;SDS011;8305;-33.882;151.134;2023-02-28T13:10:20;7.40;;;2.25;;
16391;SDS011;8305;-33.882;151.134;2023-02-28T13:12:52;6.13;;;2.42;;
16391;SDS011;8305;-33.882;151.134;2023-02-28T13:15:26;4.20;;;2.40;;
16391;SDS011;8305;-33.882;151.134;2023-02-28T13:18:01;8.30;;;2.10;;
16391;SDS011;8305;-33.882;151.134;2023-02-28T13:20:33;5.22;;;2.15;;
16391;SDS011;8305;-33.882;151.134;2023-02-28T13:23:14;5.20;;;2.20;;
16391;SDS011;8305;-33.882;151.134;2023-02-28T13:29:36;4.85;;;2.20;;
16391;SDS011;8305;-33.882;151.134;2023-02-28T13:32:32;5.22;;;2.13;;
16391;SDS011;8305;-33.882;151.134;2023-02-28T13:38:21;7.80;;;2.70;;
16391;SDS011;8305;-33.882;151.134;2023-02-28T13:44:08;6.35;;;2.30;;
16391;SDS011;8305;-33.882;151.134;2023-02-28T13:49:56;6.68;;;2.03;;
16391;SDS011;8305;-33.882;151.134;2023-02-28T13:52:50;7.78;;;2.70;;
16391;SDS011;8305;-33.882;151.134;2023-02-28T13:55:37;6.55;;;2.00;;
16391;SDS011;8305;-33.882;151.134;2023-02-28T13:58:23;5.43;;;2.22;;
16391;SDS011;8305;-33.882;151.134;2023-02-28T14:01:20;8.35;;;2.17;;
16391;SDS011;8305;-33.882;151.134;2023-02-28T14:07:24;6.47;;;2.30;;
16391;SDS011;8305;-33.882;151.134;2023-02-28T14:09:58;7.22;;;2.20;;
16391;SDS011;8305;-33.882;151.134;2023-02-28T14:12:56;6.15;;;2.00;;
16391;SDS011;8305;-33.882;151.134;2023-02-28T14:18:26;4.75;;;2.20;;
16391;SDS011;8305;-33.882;151.134;2023-02-28T14:21:08;3.88;;;2.15;;
16391;SDS011;8305;-33.882;151.134;2023-02-28T14:23:57;5.85;;;2.30;;
16391;SDS011;8305;-33.882;151.134;2023-02-28T14:26:49;6.97;;;2.38;;
16391;SDS011;8305;-33.882;151.134;2023-02-28T14:29:46;5.82;;;2.15;;
16391;SDS011;8305;-33.882;151.134;2023-02-28T14:32:49;6.20;;;2.17;;
16391;SDS011;8305;-33.882;151.134;2023-02-28T14:35:48;6.90;;;2.35;;
16391;SDS011;8305;-33.882;151.134;2023-02-28T14:38:34;3.38;;;1.63;;
16391;SDS011;8305;-33.882;151.134;2023-02-28T14:41:21;7.13;;;2.15;;
16391;SDS011;8305;-33.882;151.134;2023-02-28T14:43:54;5.50;;;2.17;;
16391;SDS011;8305;-33.882;151.134;2023-02-28T14:46:26;5.85;;;2.30;;
16391;SDS011;8305;-33.882;151.134;2023-02-28T14:49:04;4.05;;;2.17;;
16391;SDS011;8305;-33.882;151.134;2023-02-28T14:51:41;6.15;;;2.30;;
16391;SDS011;8305;-33.882;151.134;2023-02-28T14:54:14;6.95;;;2.30;;
16391;SDS011;8305;-33.882;151.134;2023-02-28T14:56:52;6.82;;;2.22;;
16391;SDS011;8305;-33.882;151.134;2023-02-28T14:59:27;5.78;;;2.28;;
16391;SDS011;8305;-33.882;151.134;2023-02-28T15:02:16;5.90;;;2.40;;
16391;SDS011;8305;-33.882;151.134;2023-02-28T15:04:55;4.75;;;2.40;;
16391;SDS011;8305;-33.882;151.134;2023-02-28T15:07:28;4.85;;;2.03;;
16391;SDS011;8305;-33.882;151.134;2023-02-28T15:10:09;6.47;;;2.40;;
16391;SDS011;8305;-33.882;151.134;2023-02-28T15:12:53;4.63;;;2.22;;
16391;SDS011;8305;-33.882;151.134;2023-02-28T15:15:26;5.00;;;2.40;;
16391;SDS011;8305;-33.882;151.134;2023-02-28T15:18:04;7.07;;;2.40;;
16391;SDS011;8305;-33.882;151.134;2023-02-28T15:20:37;3.75;;;2.15;;
16391;SDS011;8305;-33.882;151.134;2023-02-28T15:23:10;7.38;;;2.40;;
16391;SDS011;8305;-33.882;151.134;2023-02-28T15:25:41;6.65;;;2.20;;
16391;SDS011;8305;-33.882;151.134;2023-02-28T15:28:15;7.68;;;2.17;;
16391;SDS011;8305;-33.882;151.134;2023-02-28T15:30:51;5.43;;;2.10;;
16391;SDS011;8305;-33.882;151.134;2023-02-28T15:33:25;4.40;;;1.85;;
16391;SDS011;8305;-33.882;151.134;2023-02-28T15:36:07;5.63;;;2.40;;
16391;SDS011;8305;-33.882;151.134;2023-02-28T15:38:43;4.10;;;2.22;;
16391;SDS011;8305;-33.882;151.134;2023-02-28T15:41:24;8.02;;;2.38;;
16391;SDS011;8305;-33.882;151.134;2023-02-28T15:44:17;5.90;;;2.38;;
16391;SDS011;8305;-33.882;151.134;2023-02-28T15:47:00;7.93;;;2.25;;
16391;SDS011;8305;-33.882;151.134;2023-02-28T15:49:36;5.15;;;2.13;;
16391;SDS011;8305;-33.882;151.134;2023-02-28T15:52:14;5.38;;;2.20;;
16391;SDS011;8305;-33.882;151.134;2023-02-28T15:54:49;7.93;;;2.60;;